sensor_id;sensor_type;location;lat;lon;timestamp;P1;durP1;ratioP1;P2;durP2;ratioP2
9526;SDS011;4802;51.494;6.770;2022-07-17T00:01:01;0.40;;;0.37;;
9526;SDS011;4802;51.494;6.770;2022-07-17T00:03:30;2.67;;;0.93;;
9526;SDS011;4802;51.494;6.770;2022-07-17T00:06:00;1.17;;;0.77;;
9526;SDS011;4802;51.494;6.770;2022-07-17T00:08:29;0.60;;;0.43;;
9526;SDS011;4802;51.494;6.770;2022-07-17T00:11:15;0.90;;;0.70;;
9526;SDS011;4802;51.494;6.770;2022-07-17T00:13:44;0.70;;;0.70;;
9526;SDS011;4802;51.494;6.770;2022-07-17T00:16:13;1.13;;;1.03;;
9526;SDS011;4802;51.494;6.770;2022-07-17T00:18:42;3.80;;;1.00;;
9526;SDS011;4802;51.494;6.770;2022-07-17T00:21:11;0.80;;;0.77;;
9526;SDS011;4802;51.494;6.770;2022-07-17T00:23:41;1.17;;;1.00;;
9526;SDS011;4802;51.494;6.770;2022-07-17T00:26:10;1.80;;;0.83;;
9526;SDS011;4802;51.494;6.770;2022-07-17T00:28:41;1.17;;;1.17;;
9526;SDS011;4802;51.494;6.770;2022-07-17T00:31:10;2.10;;;0.90;;
9526;SDS011;4802;51.494;6.770;2022-07-17T00:33:39;2.53;;;1.00;;
9526;SDS011;4802;51.494;6.770;2022-07-17T00:36:08;10.97;;;1.33;;
9526;SDS011;4802;51.494;6.770;2022-07-17T00:38:37;0.70;;;0.70;;
9526;SDS011;4802;51.494;6.770;2022-07-17T00:41:07;0.70;;;0.43;;
9526;SDS011;4802;51.494;6.770;2022-07-17T00:43:36;3.37;;;0.50;;
9526;SDS011;4802;51.494;6.770;2022-07-17T00:46:08;1.40;;;0.90;;
9526;SDS011;4802;51.494;6.770;2022-07-17T00:48:37;1.90;;;1.27;;
9526;SDS011;4802;51.494;6.770;2022-07-17T00:51:06;1.77;;;0.77;;
9526;SDS011;4802;51.494;6.770;2022-07-17T00:53:36;0.60;;;0.60;;
9526;SDS011;4802;51.494;6.770;2022-07-17T00:56:06;0.67;;;0.67;;
9526;SDS011;4802;51.494;6.770;2022-07-17T00:58:35;0.60;;;0.60;;
9526;SDS011;4802;51.494;6.770;2022-07-17T01:01:05;1.07;;;1.07;;
9526;SDS011;4802;51.494;6.770;2022-07-17T01:03:35;0.87;;;0.57;;
9526;SDS011;4802;51.494;6.770;2022-07-17T01:06:05;1.13;;;0.80;;
9526;SDS011;4802;51.494;6.770;2022-07-17T01:08:35;1.00;;;0.90;;
9526;SDS011;4802;51.494;6.770;2022-07-17T01:11:04;0.80;;;0.80;;
9526;SDS011;4802;51.494;6.770;2022-07-17T01:13:35;0.90;;;0.90;;
9526;SDS011;4802;51.494;6.770;2022-07-17T01:16:05;0.93;;;0.63;;
9526;SDS011;4802;51.494;6.770;2022-07-17T01:18:37;1.07;;;0.80;;
9526;SDS011;4802;51.494;6.770;2022-07-17T01:21:07;1.37;;;1.20;;
9526;SDS011;4802;51.494;6.770;2022-07-17T01:23:36;1.47;;;0.60;;
9526;SDS011;4802;51.494;6.770;2022-07-17T01:26:05;0.60;;;0.60;;
9526;SDS011;4802;51.494;6.770;2022-07-17T01:28:35;2.00;;;0.60;;
9526;SDS011;4802;51.494;6.770;2022-07-17T01:31:04;1.23;;;0.70;;
9526;SDS011;4802;51.494;6.770;2022-07-17T01:33:33;1.80;;;1.10;;
9526;SDS011;4802;51.494;6.770;2022-07-17T01:36:03;3.40;;;1.17;;
9526;SDS011;4802;51.494;6.770;2022-07-17T01:38:33;1.87;;;1.50;;
9526;SDS011;4802;51.494;6.770;2022-07-17T01:41:02;0.60;;;0.60;;
9526;SDS011;4802;51.494;6.770;2022-07-17T01:43:31;5.20;;;0.83;;
9526;SDS011;4802;51.494;6.770;2022-07-17T01:46:01;2.63;;;1.30;;
9526;SDS011;4802;51.494;6.770;2022-07-17T01:48:29;3.07;;;0.80;;
9526;SDS011;4802;51.494;6.770;2022-07-17T01:50:58;1.43;;;1.30;;
9526;SDS011;4802;51.494;6.770;2022-07-17T01:53:27;4.20;;;0.90;;
9526;SDS011;4802;51.494;6.770;2022-07-17T01:55:58;0.80;;;0.70;;
9526;SDS011;4802;51.494;6.770;2022-07-17T01:58:26;0.60;;;0.60;;
9526;SDS011;4802;51.494;6.770;2022-07-17T02:00:57;4.10;;;1.00;;
9526;SDS011;4802;51.494;6.770;2022-07-17T02:03:26;0.50;;;0.50;;
9526;SDS011;4802;51.494;6.770;2022-07-17T02:05:55;7.97;;;1.17;;
9526;SDS011;4802;51.494;6.770;2022-07-17T02:08:25;0.93;;;0.70;;
9526;SDS011;4802;51.494;6.770;2022-07-17T02:10:54;0.50;;;0.50;;
9526;SDS011;4802;51.494;6.770;2022-07-17T02:13:24;6.13;;;0.97;;
9526;SDS011;4802;51.494;6.770;2022-07-17T02:15:53;1.00;;;1.00;;
9526;SDS011;4802;51.494;6.770;2022-07-17T02:18:25;1.60;;;1.33;;
9526;SDS011;4802;51.494;6.770;2022-07-17T02:20:54;0.77;;;0.77;;
9526;SDS011;4802;51.494;6.770;2022-07-17T02:23:22;2.60;;;0.93;;
9526;SDS011;4802;51.494;6.770;2022-07-17T02:25:51;1.27;;;0.77;;
9526;SDS011;4802;51.494;6.770;2022-07-17T02:28:21;0.80;;;0.80;;
9526;SDS011;4802;51.494;6.770;2022-07-17T02:30:51;0.63;;;0.63;;
9526;SDS011;4802;51.494;6.770;2022-07-17T02:33:20;0.97;;;0.90;;
9526;SDS011;4802;51.494;6.770;2022-07-17T02:35:49;2.50;;;1.00;;
9526;SDS011;4802;51.494;6.770;2022-07-17T02:38:19;0.60;;;0.60;;
9526;SDS011;4802;51.494;6.770;2022-07-17T02:40:48;0.70;;;0.67;;
9526;SDS011;4802;51.494;6.770;2022-07-17T02:43:17;0.50;;;0.50;;
9526;SDS011;4802;51.494;6.770;2022-07-17T02:45:46;0.40;;;0.30;;
9526;SDS011;4802;51.494;6.770;2022-07-17T02:48:18;5.10;;;0.87;;
9526;SDS011;4802;51.494;6.770;2022-07-17T02:50:47;0.93;;;0.93;;
9526;SDS011;4802;51.494;6.770;2022-07-17T02:53:16;1.00;;;1.00;;
9526;SDS011;4802;51.494;6.770;2022-07-17T02:55:44;0.90;;;0.80;;
9526;SDS011;4802;51.494;6.770;2022-07-17T02:58:13;0.70;;;0.70;;
9526;SDS011;4802;51.494;6.770;2022-07-17T03:00:42;0.63;;;0.63;;
9526;SDS011;4802;51.494;6.770;2022-07-17T03:03:11;1.37;;;1.10;;
9526;SDS011;4802;51.494;6.770;2022-07-17T03:05:42;0.60;;;0.60;;
9526;SDS011;4802;51.494;6.770;2022-07-17T03:08:11;0.77;;;0.77;;
9526;SDS011;4802;51.494;6.770;2022-07-17T03:10:40;0.57;;;0.57;;
9526;SDS011;4802;51.494;6.770;2022-07-17T03:13:09;0.60;;;0.60;;
9526;SDS011;4802;51.494;6.770;2022-07-17T03:15:38;1.00;;;1.00;;
9526;SDS011;4802;51.494;6.770;2022-07-17T03:18:07;3.30;;;0.90;;
9526;SDS011;4802;51.494;6.770;2022-07-17T03:20:36;0.93;;;0.93;;
9526;SDS011;4802;51.494;6.770;2022-07-17T03:23:07;1.23;;;1.13;;
9526;SDS011;4802;51.494;6.770;2022-07-17T03:25:36;2.20;;;0.70;;
9526;SDS011;4802;51.494;6.770;2022-07-17T03:28:05;1.03;;;0.93;;
9526;SDS011;4802;51.494;6.770;2022-07-17T03:30:33;0.77;;;0.77;;
9526;SDS011;4802;51.494;6.770;2022-07-17T03:33:03;0.53;;;0.53;;
9526;SDS011;4802;51.494;6.770;2022-07-17T03:35:32;0.73;;;0.70;;
9526;SDS011;4802;51.494;6.770;2022-07-17T03:38:01;0.77;;;0.77;;
9526;SDS011;4802;51.494;6.770;2022-07-17T03:40:31;0.97;;;0.80;;
9526;SDS011;4802;51.494;6.770;2022-07-17T03:43:01;0.80;;;0.80;;
9526;SDS011;4802;51.494;6.770;2022-07-17T03:45:30;1.70;;;0.70;;
9526;SDS011;4802;51.494;6.770;2022-07-17T03:47:59;0.73;;;0.73;;
9526;SDS011;4802;51.494;6.770;2022-07-17T03:50:27;0.73;;;0.73;;
9526;SDS011;4802;51.494;6.770;2022-07-17T03:52:56;1.23;;;1.00;;
9526;SDS011;4802;51.494;6.770;2022-07-17T03:55:25;0.77;;;0.77;;
9526;SDS011;4802;51.494;6.770;2022-07-17T03:57:56;5.23;;;0.97;;
9526;SDS011;4802;51.494;6.770;2022-07-17T04:00:24;1.37;;;0.87;;
9526;SDS011;4802;51.494;6.770;2022-07-17T04:02:54;0.93;;;0.93;;
9526;SDS011;4802;51.494;6.770;2022-07-17T04:05:23;0.60;;;0.60;;
9526;SDS011;4802;51.494;6.770;2022-07-17T04:07:52;4.13;;;1.10;;
9526;SDS011;4802;51.494;6.770;2022-07-17T04:10:20;1.00;;;0.80;;
9526;SDS011;4802;51.494;6.770;2022-07-17T04:12:49;1.53;;;0.80;;
9526;SDS011;4802;51.494;6.770;2022-07-17T04:15:20;0.90;;;0.77;;
9526;SDS011;4802;51.494;6.770;2022-07-17T04:18:02;3.23;;;1.03;;
9526;SDS011;4802;51.494;6.770;2022-07-17T04:20:32;1.30;;;1.20;;
9526;SDS011;4802;51.494;6.770;2022-07-17T04:23:01;3.60;;;0.97;;
9526;SDS011;4802;51.494;6.770;2022-07-17T04:25:31;1.33;;;1.23;;
9526;SDS011;4802;51.494;6.770;2022-07-17T04:28:00;12.97;;;0.90;;
9526;SDS011;4802;51.494;6.770;2022-07-17T04:30:31;0.93;;;0.93;;
9526;SDS011;4802;51.494;6.770;2022-07-17T04:33:00;1.20;;;1.13;;
9526;SDS011;4802;51.494;6.770;2022-07-17T04:35:29;0.70;;;0.70;;
9526;SDS011;4802;51.494;6.770;2022-07-17T04:37:58;1.07;;;0.97;;
9526;SDS011;4802;51.494;6.770;2022-07-17T04:40:32;5.13;;;2.20;;
9526;SDS011;4802;51.494;6.770;2022-07-17T04:43:02;2.30;;;0.80;;
9526;SDS011;4802;51.494;6.770;2022-07-17T04:45:33;1.70;;;1.60;;
9526;SDS011;4802;51.494;6.770;2022-07-17T04:48:02;4.77;;;1.20;;
9526;SDS011;4802;51.494;6.770;2022-07-17T04:50:32;1.40;;;1.07;;
9526;SDS011;4802;51.494;6.770;2022-07-17T04:53:01;5.33;;;1.10;;
9526;SDS011;4802;51.494;6.770;2022-07-17T04:55:30;4.50;;;1.23;;
9526;SDS011;4802;51.494;6.770;2022-07-17T04:57:59;4.17;;;1.10;;
9526;SDS011;4802;51.494;6.770;2022-07-17T05:00:28;1.00;;;0.90;;
9526;SDS011;4802;51.494;6.770;2022-07-17T05:02:58;0.67;;;0.67;;
9526;SDS011;4802;51.494;6.770;2022-07-17T05:05:27;0.80;;;0.73;;
9526;SDS011;4802;51.494;6.770;2022-07-17T05:07:56;1.17;;;1.00;;
9526;SDS011;4802;51.494;6.770;2022-07-17T05:10:25;1.20;;;0.80;;
9526;SDS011;4802;51.494;6.770;2022-07-17T05:12:54;0.83;;;0.80;;
9526;SDS011;4802;51.494;6.770;2022-07-17T05:15:23;0.80;;;0.80;;
9526;SDS011;4802;51.494;6.770;2022-07-17T05:17:52;0.77;;;0.77;;
9526;SDS011;4802;51.494;6.770;2022-07-17T05:20:22;1.03;;;0.60;;
9526;SDS011;4802;51.494;6.770;2022-07-17T05:22:52;1.10;;;1.00;;
9526;SDS011;4802;51.494;6.770;2022-07-17T05:25:21;1.17;;;1.17;;
9526;SDS011;4802;51.494;6.770;2022-07-17T05:27:52;2.57;;;0.90;;
9526;SDS011;4802;51.494;6.770;2022-07-17T05:30:21;1.33;;;0.87;;
9526;SDS011;4802;51.494;6.770;2022-07-17T05:32:50;0.93;;;0.70;;
9526;SDS011;4802;51.494;6.770;2022-07-17T05:35:19;0.80;;;0.70;;
9526;SDS011;4802;51.494;6.770;2022-07-17T05:37:51;0.77;;;0.70;;
9526;SDS011;4802;51.494;6.770;2022-07-17T05:40:20;2.03;;;1.57;;
9526;SDS011;4802;51.494;6.770;2022-07-17T05:42:49;1.00;;;0.70;;
9526;SDS011;4802;51.494;6.770;2022-07-17T05:45:18;1.63;;;1.30;;
9526;SDS011;4802;51.494;6.770;2022-07-17T05:47:47;0.60;;;0.60;;
9526;SDS011;4802;51.494;6.770;2022-07-17T05:50:16;1.10;;;0.83;;
9526;SDS011;4802;51.494;6.770;2022-07-17T05:52:45;2.73;;;0.80;;
9526;SDS011;4802;51.494;6.770;2022-07-17T05:55:15;2.30;;;0.77;;
9526;SDS011;4802;51.494;6.770;2022-07-17T05:57:45;1.47;;;0.87;;
9526;SDS011;4802;51.494;6.770;2022-07-17T06:00:14;1.23;;;0.80;;
9526;SDS011;4802;51.494;6.770;2022-07-17T06:02:43;0.77;;;0.77;;
9526;SDS011;4802;51.494;6.770;2022-07-17T06:05:12;1.07;;;1.07;;
9526;SDS011;4802;51.494;6.770;2022-07-17T06:07:46;0.70;;;0.63;;
9526;SDS011;4802;51.494;6.770;2022-07-17T06:10:18;1.30;;;0.90;;
9526;SDS011;4802;51.494;6.770;2022-07-17T06:12:47;0.70;;;0.63;;
9526;SDS011;4802;51.494;6.770;2022-07-17T06:15:19;1.07;;;1.07;;
9526;SDS011;4802;51.494;6.770;2022-07-17T06:17:48;3.50;;;0.97;;
9526;SDS011;4802;51.494;6.770;2022-07-17T06:20:17;0.60;;;0.50;;
9526;SDS011;4802;51.494;6.770;2022-07-17T06:22:47;3.30;;;1.40;;
9526;SDS011;4802;51.494;6.770;2022-07-17T06:25:17;0.90;;;0.73;;
9526;SDS011;4802;51.494;6.770;2022-07-17T06:27:47;0.93;;;0.90;;
9526;SDS011;4802;51.494;6.770;2022-07-17T06:30:16;2.00;;;0.93;;
9526;SDS011;4802;51.494;6.770;2022-07-17T06:32:45;1.90;;;0.83;;
9526;SDS011;4802;51.494;6.770;2022-07-17T06:35:14;1.97;;;1.03;;
9526;SDS011;4802;51.494;6.770;2022-07-17T06:37:43;0.80;;;0.80;;
9526;SDS011;4802;51.494;6.770;2022-07-17T06:40:12;1.37;;;0.90;;
9526;SDS011;4802;51.494;6.770;2022-07-17T06:42:43;1.60;;;0.67;;
9526;SDS011;4802;51.494;6.770;2022-07-17T06:45:13;2.50;;;0.60;;
9526;SDS011;4802;51.494;6.770;2022-07-17T06:47:42;0.90;;;0.90;;
9526;SDS011;4802;51.494;6.770;2022-07-17T06:50:11;1.00;;;0.97;;
9526;SDS011;4802;51.494;6.770;2022-07-17T06:52:40;0.70;;;0.70;;
9526;SDS011;4802;51.494;6.770;2022-07-17T06:55:12;1.10;;;0.80;;
9526;SDS011;4802;51.494;6.770;2022-07-17T06:57:43;0.97;;;0.97;;
9526;SDS011;4802;51.494;6.770;2022-07-17T07:00:15;2.30;;;1.00;;
9526;SDS011;4802;51.494;6.770;2022-07-17T07:02:45;1.00;;;0.90;;
9526;SDS011;4802;51.494;6.770;2022-07-17T07:05:14;0.80;;;0.80;;
9526;SDS011;4802;51.494;6.770;2022-07-17T07:07:43;4.30;;;1.37;;
9526;SDS011;4802;51.494;6.770;2022-07-17T07:10:11;1.43;;;0.90;;
9526;SDS011;4802;51.494;6.770;2022-07-17T07:12:40;0.70;;;0.67;;
9526;SDS011;4802;51.494;6.770;2022-07-17T07:15:11;1.47;;;1.07;;
9526;SDS011;4802;51.494;6.770;2022-07-17T07:17:41;2.27;;;0.90;;
9526;SDS011;4802;51.494;6.770;2022-07-17T07:20:10;2.17;;;1.10;;
9526;SDS011;4802;51.494;6.770;2022-07-17T07:22:39;1.10;;;0.70;;
9526;SDS011;4802;51.494;6.770;2022-07-17T07:25:08;0.97;;;0.67;;
9526;SDS011;4802;51.494;6.770;2022-07-17T07:27:37;0.90;;;0.87;;
9526;SDS011;4802;51.494;6.770;2022-07-17T07:30:08;0.73;;;0.73;;
9526;SDS011;4802;51.494;6.770;2022-07-17T07:32:38;0.50;;;0.50;;
9526;SDS011;4802;51.494;6.770;2022-07-17T07:35:08;1.20;;;0.60;;
9526;SDS011;4802;51.494;6.770;2022-07-17T07:37:37;0.67;;;0.67;;
9526;SDS011;4802;51.494;6.770;2022-07-17T07:40:07;0.77;;;0.77;;
9526;SDS011;4802;51.494;6.770;2022-07-17T07:42:37;0.90;;;0.60;;
9526;SDS011;4802;51.494;6.770;2022-07-17T07:45:09;1.23;;;0.90;;
9526;SDS011;4802;51.494;6.770;2022-07-17T07:47:42;0.70;;;0.70;;
9526;SDS011;4802;51.494;6.770;2022-07-17T07:50:12;1.27;;;0.57;;
9526;SDS011;4802;51.494;6.770;2022-07-17T07:52:41;1.93;;;1.20;;
9526;SDS011;4802;51.494;6.770;2022-07-17T07:55:11;1.07;;;0.87;;
9526;SDS011;4802;51.494;6.770;2022-07-17T07:57:46;0.67;;;0.60;;
9526;SDS011;4802;51.494;6.770;2022-07-17T08:00:18;2.10;;;1.07;;
9526;SDS011;4802;51.494;6.770;2022-07-17T08:02:47;1.57;;;0.87;;
9526;SDS011;4802;51.494;6.770;2022-07-17T08:05:17;0.80;;;0.57;;
9526;SDS011;4802;51.494;6.770;2022-07-17T08:07:47;1.23;;;1.13;;
9526;SDS011;4802;51.494;6.770;2022-07-17T08:10:16;1.57;;;1.17;;
9526;SDS011;4802;51.494;6.770;2022-07-17T08:12:46;0.50;;;0.50;;
9526;SDS011;4802;51.494;6.770;2022-07-17T08:15:15;3.60;;;1.30;;
9526;SDS011;4802;51.494;6.770;2022-07-17T08:17:49;4.53;;;1.43;;
9526;SDS011;4802;51.494;6.770;2022-07-17T08:20:19;0.70;;;0.70;;
9526;SDS011;4802;51.494;6.770;2022-07-17T08:22:49;1.00;;;0.70;;
9526;SDS011;4802;51.494;6.770;2022-07-17T08:25:30;3.47;;;1.20;;
9526;SDS011;4802;51.494;6.770;2022-07-17T08:28:02;2.47;;;1.40;;
9526;SDS011;4802;51.494;6.770;2022-07-17T08:30:33;1.13;;;1.07;;
9526;SDS011;4802;51.494;6.770;2022-07-17T08:33:03;1.40;;;1.30;;
9526;SDS011;4802;51.494;6.770;2022-07-17T08:35:34;1.70;;;1.50;;
9526;SDS011;4802;51.494;6.770;2022-07-17T08:38:04;1.10;;;1.10;;
9526;SDS011;4802;51.494;6.770;2022-07-17T08:40:35;3.73;;;1.00;;
9526;SDS011;4802;51.494;6.770;2022-07-17T08:43:06;1.20;;;0.80;;
9526;SDS011;4802;51.494;6.770;2022-07-17T08:45:37;3.60;;;1.43;;
9526;SDS011;4802;51.494;6.770;2022-07-17T08:48:13;0.80;;;0.80;;
9526;SDS011;4802;51.494;6.770;2022-07-17T08:50:45;1.53;;;1.43;;
9526;SDS011;4802;51.494;6.770;2022-07-17T08:53:15;1.07;;;0.70;;
9526;SDS011;4802;51.494;6.770;2022-07-17T08:55:45;0.80;;;0.80;;
9526;SDS011;4802;51.494;6.770;2022-07-17T08:58:17;1.13;;;0.93;;
9526;SDS011;4802;51.494;6.770;2022-07-17T09:00:47;1.97;;;1.87;;
9526;SDS011;4802;51.494;6.770;2022-07-17T09:03:18;1.83;;;1.73;;
9526;SDS011;4802;51.494;6.770;2022-07-17T09:05:50;2.20;;;1.13;;
9526;SDS011;4802;51.494;6.770;2022-07-17T09:08:23;3.20;;;0.80;;
9526;SDS011;4802;51.494;6.770;2022-07-17T09:10:52;1.57;;;1.47;;
9526;SDS011;4802;51.494;6.770;2022-07-17T09:13:23;0.60;;;0.50;;
9526;SDS011;4802;51.494;6.770;2022-07-17T09:15:58;1.23;;;1.13;;
9526;SDS011;4802;51.494;6.770;2022-07-17T09:18:42;5.27;;;1.30;;
9526;SDS011;4802;51.494;6.770;2022-07-17T09:21:16;1.43;;;0.97;;
9526;SDS011;4802;51.494;6.770;2022-07-17T09:23:57;1.20;;;0.93;;
9526;SDS011;4802;51.494;6.770;2022-07-17T09:26:32;1.87;;;0.77;;
9526;SDS011;4802;51.494;6.770;2022-07-17T09:29:04;1.30;;;1.17;;
9526;SDS011;4802;51.494;6.770;2022-07-17T09:31:35;1.70;;;1.50;;
9526;SDS011;4802;51.494;6.770;2022-07-17T09:34:16;1.83;;;1.20;;
9526;SDS011;4802;51.494;6.770;2022-07-17T09:36:57;3.43;;;1.33;;
9526;SDS011;4802;51.494;6.770;2022-07-17T09:39:38;1.10;;;0.93;;
9526;SDS011;4802;51.494;6.770;2022-07-17T09:42:08;3.03;;;0.90;;
9526;SDS011;4802;51.494;6.770;2022-07-17T09:44:38;2.17;;;1.40;;
9526;SDS011;4802;51.494;6.770;2022-07-17T09:47:12;1.63;;;1.17;;
9526;SDS011;4802;51.494;6.770;2022-07-17T09:49:43;1.73;;;1.10;;
9526;SDS011;4802;51.494;6.770;2022-07-17T09:52:14;4.53;;;1.70;;
9526;SDS011;4802;51.494;6.770;2022-07-17T09:54:46;2.60;;;0.87;;
9526;SDS011;4802;51.494;6.770;2022-07-17T09:57:29;1.40;;;1.20;;
9526;SDS011;4802;51.494;6.770;2022-07-17T10:00:00;1.03;;;0.93;;
9526;SDS011;4802;51.494;6.770;2022-07-17T10:02:34;1.57;;;1.13;;
9526;SDS011;4802;51.494;6.770;2022-07-17T10:05:04;1.53;;;1.40;;
9526;SDS011;4802;51.494;6.770;2022-07-17T10:07:34;1.90;;;1.20;;
9526;SDS011;4802;51.494;6.770;2022-07-17T10:10:04;0.90;;;0.80;;
9526;SDS011;4802;51.494;6.770;2022-07-17T10:12:36;0.70;;;0.70;;
9526;SDS011;4802;51.494;6.770;2022-07-17T10:15:08;1.33;;;0.83;;
9526;SDS011;4802;51.494;6.770;2022-07-17T10:17:39;1.90;;;1.30;;
9526;SDS011;4802;51.494;6.770;2022-07-17T10:20:12;0.70;;;0.60;;
9526;SDS011;4802;51.494;6.770;2022-07-17T10:22:52;0.93;;;0.90;;
9526;SDS011;4802;51.494;6.770;2022-07-17T10:25:23;3.73;;;0.90;;
9526;SDS011;4802;51.494;6.770;2022-07-17T10:27:54;0.70;;;0.50;;
9526;SDS011;4802;51.494;6.770;2022-07-17T10:30:24;1.57;;;0.73;;
9526;SDS011;4802;51.494;6.770;2022-07-17T10:32:57;2.30;;;0.70;;
9526;SDS011;4802;51.494;6.770;2022-07-17T10:35:29;0.70;;;0.70;;
9526;SDS011;4802;51.494;6.770;2022-07-17T10:38:13;1.87;;;0.57;;
9526;SDS011;4802;51.494;6.770;2022-07-17T10:40:43;2.10;;;1.40;;
9526;SDS011;4802;51.494;6.770;2022-07-17T10:43:13;2.30;;;0.73;;
9526;SDS011;4802;51.494;6.770;2022-07-17T10:45:43;1.17;;;0.67;;
9526;SDS011;4802;51.494;6.770;2022-07-17T10:48:16;0.60;;;0.60;;
9526;SDS011;4802;51.494;6.770;2022-07-17T10:50:48;0.80;;;0.60;;
9526;SDS011;4802;51.494;6.770;2022-07-17T10:53:18;1.93;;;0.87;;
9526;SDS011;4802;51.494;6.770;2022-07-17T10:55:51;0.73;;;0.73;;
9526;SDS011;4802;51.494;6.770;2022-07-17T10:58:23;1.90;;;0.40;;
9526;SDS011;4802;51.494;6.770;2022-07-17T11:01:01;3.33;;;1.00;;
9526;SDS011;4802;51.494;6.770;2022-07-17T11:03:38;0.63;;;0.63;;
9526;SDS011;4802;51.494;6.770;2022-07-17T11:06:10;0.77;;;0.77;;
9526;SDS011;4802;51.494;6.770;2022-07-17T11:08:43;0.63;;;0.63;;
9526;SDS011;4802;51.494;6.770;2022-07-17T11:11:40;0.87;;;0.60;;
9526;SDS011;4802;51.494;6.770;2022-07-17T11:14:12;0.80;;;0.57;;
9526;SDS011;4802;51.494;6.770;2022-07-17T11:16:44;0.63;;;0.63;;
9526;SDS011;4802;51.494;6.770;2022-07-17T11:19:23;0.77;;;0.77;;
9526;SDS011;4802;51.494;6.770;2022-07-17T11:21:55;2.00;;;0.80;;
9526;SDS011;4802;51.494;6.770;2022-07-17T11:24:34;0.63;;;0.63;;
9526;SDS011;4802;51.494;6.770;2022-07-17T11:27:04;1.00;;;0.90;;
9526;SDS011;4802;51.494;6.770;2022-07-17T11:29:37;1.53;;;1.00;;
9526;SDS011;4802;51.494;6.770;2022-07-17T11:32:09;0.67;;;0.67;;
9526;SDS011;4802;51.494;6.770;2022-07-17T11:34:41;1.07;;;0.60;;
9526;SDS011;4802;51.494;6.770;2022-07-17T11:37:11;1.23;;;0.70;;
9526;SDS011;4802;51.494;6.770;2022-07-17T11:39:45;2.63;;;1.53;;
9526;SDS011;4802;51.494;6.770;2022-07-17T11:42:19;0.70;;;0.70;;
9526;SDS011;4802;51.494;6.770;2022-07-17T11:44:50;1.07;;;0.63;;
9526;SDS011;4802;51.494;6.770;2022-07-17T11:47:22;0.77;;;0.77;;
9526;SDS011;4802;51.494;6.770;2022-07-17T11:50:05;0.80;;;0.70;;
9526;SDS011;4802;51.494;6.770;2022-07-17T11:52:40;0.57;;;0.57;;
9526;SDS011;4802;51.494;6.770;2022-07-17T11:55:11;0.60;;;0.47;;
9526;SDS011;4802;51.494;6.770;2022-07-17T11:57:42;1.63;;;1.10;;
9526;SDS011;4802;51.494;6.770;2022-07-17T12:00:15;0.70;;;0.50;;
9526;SDS011;4802;51.494;6.770;2022-07-17T12:02:57;0.57;;;0.57;;
9526;SDS011;4802;51.494;6.770;2022-07-17T12:05:32;0.90;;;0.90;;
9526;SDS011;4802;51.494;6.770;2022-07-17T12:08:07;2.47;;;1.13;;
9526;SDS011;4802;51.494;6.770;2022-07-17T12:10:37;1.40;;;0.70;;
9526;SDS011;4802;51.494;6.770;2022-07-17T12:13:13;0.60;;;0.60;;
9526;SDS011;4802;51.494;6.770;2022-07-17T12:15:43;1.63;;;1.53;;
9526;SDS011;4802;51.494;6.770;2022-07-17T12:18:19;0.50;;;0.50;;
9526;SDS011;4802;51.494;6.770;2022-07-17T12:20:55;0.67;;;0.67;;
9526;SDS011;4802;51.494;6.770;2022-07-17T12:23:27;0.60;;;0.60;;
9526;SDS011;4802;51.494;6.770;2022-07-17T12:26:04;0.80;;;0.80;;
9526;SDS011;4802;51.494;6.770;2022-07-17T12:28:35;5.30;;;2.73;;
9526;SDS011;4802;51.494;6.770;2022-07-17T12:31:05;3.67;;;2.23;;
9526;SDS011;4802;51.494;6.770;2022-07-17T12:33:36;5.87;;;2.03;;
9526;SDS011;4802;51.494;6.770;2022-07-17T12:36:08;5.53;;;4.87;;
9526;SDS011;4802;51.494;6.770;2022-07-17T12:38:37;11.90;;;8.50;;
9526;SDS011;4802;51.494;6.770;2022-07-17T12:41:07;10.17;;;7.70;;
9526;SDS011;4802;51.494;6.770;2022-07-17T12:43:36;6.80;;;4.40;;
9526;SDS011;4802;51.494;6.770;2022-07-17T12:46:08;3.40;;;2.70;;
9526;SDS011;4802;51.494;6.770;2022-07-17T12:48:43;2.13;;;1.93;;
9526;SDS011;4802;51.494;6.770;2022-07-17T12:51:15;1.77;;;1.40;;
9526;SDS011;4802;51.494;6.770;2022-07-17T12:53:45;3.33;;;1.50;;
9526;SDS011;4802;51.494;6.770;2022-07-17T12:56:14;2.13;;;1.93;;
9526;SDS011;4802;51.494;6.770;2022-07-17T12:58:43;1.90;;;1.20;;
9526;SDS011;4802;51.494;6.770;2022-07-17T13:01:16;1.53;;;1.43;;
9526;SDS011;4802;51.494;6.770;2022-07-17T13:03:46;2.10;;;1.67;;
9526;SDS011;4802;51.494;6.770;2022-07-17T13:06:17;2.10;;;1.97;;
9526;SDS011;4802;51.494;6.770;2022-07-17T13:08:47;1.60;;;1.03;;
9526;SDS011;4802;51.494;6.770;2022-07-17T13:11:18;1.23;;;1.10;;
9526;SDS011;4802;51.494;6.770;2022-07-17T13:13:49;1.70;;;0.80;;
9526;SDS011;4802;51.494;6.770;2022-07-17T13:16:22;1.33;;;1.23;;
9526;SDS011;4802;51.494;6.770;2022-07-17T13:18:53;1.50;;;1.17;;
9526;SDS011;4802;51.494;6.770;2022-07-17T13:21:25;2.10;;;1.13;;
9526;SDS011;4802;51.494;6.770;2022-07-17T13:23:54;3.50;;;1.73;;
9526;SDS011;4802;51.494;6.770;2022-07-17T13:26:24;2.23;;;1.13;;
9526;SDS011;4802;51.494;6.770;2022-07-17T13:28:53;4.43;;;2.20;;
9526;SDS011;4802;51.494;6.770;2022-07-17T13:31:23;1.17;;;0.90;;
9526;SDS011;4802;51.494;6.770;2022-07-17T13:33:58;1.33;;;0.80;;
9526;SDS011;4802;51.494;6.770;2022-07-17T13:36:31;1.23;;;0.77;;
9526;SDS011;4802;51.494;6.770;2022-07-17T13:39:02;0.73;;;0.73;;
9526;SDS011;4802;51.494;6.770;2022-07-17T13:41:34;0.53;;;0.50;;
9526;SDS011;4802;51.494;6.770;2022-07-17T13:44:07;1.33;;;1.23;;
9526;SDS011;4802;51.494;6.770;2022-07-17T13:46:38;1.73;;;1.37;;
9526;SDS011;4802;51.494;6.770;2022-07-17T13:49:10;1.27;;;1.27;;
9526;SDS011;4802;51.494;6.770;2022-07-17T13:51:45;1.00;;;1.00;;
9526;SDS011;4802;51.494;6.770;2022-07-17T13:54:14;1.07;;;0.97;;
9526;SDS011;4802;51.494;6.770;2022-07-17T13:56:44;0.90;;;0.80;;
9526;SDS011;4802;51.494;6.770;2022-07-17T13:59:13;2.33;;;1.17;;
9526;SDS011;4802;51.494;6.770;2022-07-17T14:01:43;1.50;;;1.40;;
9526;SDS011;4802;51.494;6.770;2022-07-17T14:04:15;0.93;;;0.93;;
9526;SDS011;4802;51.494;6.770;2022-07-17T14:06:48;1.13;;;0.93;;
9526;SDS011;4802;51.494;6.770;2022-07-17T14:09:17;2.80;;;1.57;;
9526;SDS011;4802;51.494;6.770;2022-07-17T14:11:49;1.70;;;0.60;;
9526;SDS011;4802;51.494;6.770;2022-07-17T14:14:21;1.10;;;0.97;;
9526;SDS011;4802;51.494;6.770;2022-07-17T14:16:51;1.50;;;1.00;;
9526;SDS011;4802;51.494;6.770;2022-07-17T14:19:22;1.37;;;0.53;;
9526;SDS011;4802;51.494;6.770;2022-07-17T14:21:56;1.37;;;0.70;;
9526;SDS011;4802;51.494;6.770;2022-07-17T14:24:25;1.03;;;1.03;;
9526;SDS011;4802;51.494;6.770;2022-07-17T14:26:54;1.37;;;1.20;;
9526;SDS011;4802;51.494;6.770;2022-07-17T14:29:27;2.00;;;0.77;;
9526;SDS011;4802;51.494;6.770;2022-07-17T14:31:57;0.90;;;0.90;;
9526;SDS011;4802;51.494;6.770;2022-07-17T14:34:28;2.47;;;1.07;;
9526;SDS011;4802;51.494;6.770;2022-07-17T14:36:59;1.50;;;1.40;;
9526;SDS011;4802;51.494;6.770;2022-07-17T14:39:29;1.10;;;0.90;;
9526;SDS011;4802;51.494;6.770;2022-07-17T14:41:59;1.07;;;0.97;;
9526;SDS011;4802;51.494;6.770;2022-07-17T14:44:28;1.80;;;1.07;;
9526;SDS011;4802;51.494;6.770;2022-07-17T14:47:01;0.97;;;0.93;;
9526;SDS011;4802;51.494;6.770;2022-07-17T14:49:30;1.10;;;0.70;;
9526;SDS011;4802;51.494;6.770;2022-07-17T14:52:01;1.00;;;0.90;;
9526;SDS011;4802;51.494;6.770;2022-07-17T14:54:31;1.10;;;1.00;;
9526;SDS011;4802;51.494;6.770;2022-07-17T14:57:00;3.07;;;1.37;;
9526;SDS011;4802;51.494;6.770;2022-07-17T14:59:30;1.03;;;0.90;;
9526;SDS011;4802;51.494;6.770;2022-07-17T15:01:59;0.60;;;0.60;;
9526;SDS011;4802;51.494;6.770;2022-07-17T15:04:29;1.20;;;0.90;;
9526;SDS011;4802;51.494;6.770;2022-07-17T15:07:04;1.23;;;0.90;;
9526;SDS011;4802;51.494;6.770;2022-07-17T15:09:34;0.83;;;0.83;;
9526;SDS011;4802;51.494;6.770;2022-07-17T15:12:04;2.13;;;1.70;;
9526;SDS011;4802;51.494;6.770;2022-07-17T15:14:34;1.83;;;1.73;;
9526;SDS011;4802;51.494;6.770;2022-07-17T15:17:03;0.80;;;0.80;;
9526;SDS011;4802;51.494;6.770;2022-07-17T15:19:35;1.33;;;0.93;;
9526;SDS011;4802;51.494;6.770;2022-07-17T15:22:06;2.73;;;1.20;;
9526;SDS011;4802;51.494;6.770;2022-07-17T15:24:35;1.10;;;0.93;;
9526;SDS011;4802;51.494;6.770;2022-07-17T15:27:05;1.03;;;0.97;;
9526;SDS011;4802;51.494;6.770;2022-07-17T15:29:34;1.00;;;0.50;;
9526;SDS011;4802;51.494;6.770;2022-07-17T15:32:04;0.77;;;0.60;;
9526;SDS011;4802;51.494;6.770;2022-07-17T15:34:33;1.00;;;0.70;;
9526;SDS011;4802;51.494;6.770;2022-07-17T15:37:05;1.20;;;1.10;;